Airfield :
LOGIN :

Register | Disclaimer

   EN    FR    IT 

 










Legend :    VFR   Marginal VFR   IFR   Intensive IFR   Very Intensive IFR
Visi :
Ceiling :
>= 8 km
>= 3000ft
5 to 8 km
1000 to 3000 ft
1500m to 5 km
500 to 1000 ft
800 to 1500m
200 to 500 ft
< 800m
< 200 ft
Symbols :   Thunderstorms  Fog  Heavy snow  Heavy precipitations  Wind > 20 kt
SIGMETs :     Misc.  Thunderstorms  Icing  Turbulence  Mountain Waves  Volcanic Ashes







- Airport Elevation : 116 ft
- IATA code : ISC
- Download approach charts


EGHE - Scilly Isles / St Mary's

CURRENT METAR :
  • 251320Z 21016KT 9999 SCT015CB 11/07 Q0996

EXPIRED METARs :
  • 251250Z 21018KT 9999 VCSH SCT015CB 11/06 Q0995
  • 251220Z 22019KT 9999 VCSH SCT015CB 12/08 Q0995
  • 251150Z 20015KT 9999 SCT015 12/09 Q0994
  • 251120Z 22017KT 9999 FEW015 SCT025 10/05 Q0994
  • 251050Z 23014KT 9999 FEW015 SCT020 10/08 Q0993

TAF TAF EGHE
Valid from the 25 at 12:00 until the 25 at 18:00 UTC


251108Z 2512/2518 22017KT 9999 SCT025
PROB30
TEMPO 2512/2515 7000 SHRA
No reported NOTAMs for that airfield.



MET'MAP, your aeronautical weather chart ! - Copyright ORBIFLY December 2007 - Disclaimer

ORBIFLY MET'MAP TEAM :

Programming & Development : Alexandra Zaïnal
Concept & Development : Baudouin d'Aumeries
Co-Development & Prog : Marc-Olivier Méhu
Technical & hardware support : Manuel Goepfert

Contact : metmap@orbifly.com




SOURCES & CREDITS :

   NOAA